sensor_id;sensor_type;location;lat;lon;timestamp;P1;durP1;ratioP1;P2;durP2;ratioP2
65879;SDS011;52661;51.364;6.054;2023-01-28T00:01:36;11.35;;;4.28;;
65879;SDS011;52661;51.364;6.054;2023-01-28T00:04:01;8.82;;;3.83;;
65879;SDS011;52661;51.364;6.054;2023-01-28T00:06:27;9.52;;;3.47;;
65879;SDS011;52661;51.364;6.054;2023-01-28T00:08:52;8.55;;;3.80;;
65879;SDS011;52661;51.364;6.054;2023-01-28T00:11:19;10.15;;;3.42;;
65879;SDS011;52661;51.364;6.054;2023-01-28T00:13:49;10.23;;;3.92;;
65879;SDS011;52661;51.364;6.054;2023-01-28T00:16:16;7.80;;;2.90;;
65879;SDS011;52661;51.364;6.054;2023-01-28T00:18:42;9.23;;;3.85;;
65879;SDS011;52661;51.364;6.054;2023-01-28T00:21:09;9.43;;;3.60;;
65879;SDS011;52661;51.364;6.054;2023-01-28T00:23:36;8.50;;;3.47;;
65879;SDS011;52661;51.364;6.054;2023-01-28T00:26:04;9.45;;;4.35;;
65879;SDS011;52661;51.364;6.054;2023-01-28T00:28:31;10.32;;;3.92;;
65879;SDS011;52661;51.364;6.054;2023-01-28T00:30:57;11.82;;;3.70;;
65879;SDS011;52661;51.364;6.054;2023-01-28T00:33:23;10.90;;;3.95;;
65879;SDS011;52661;51.364;6.054;2023-01-28T00:35:58;11.65;;;3.95;;
65879;SDS011;52661;51.364;6.054;2023-01-28T00:38:24;11.75;;;4.35;;
65879;SDS011;52661;51.364;6.054;2023-01-28T00:40:49;13.13;;;5.22;;
65879;SDS011;52661;51.364;6.054;2023-01-28T00:43:15;11.75;;;4.55;;
65879;SDS011;52661;51.364;6.054;2023-01-28T00:45:40;12.13;;;4.57;;
65879;SDS011;52661;51.364;6.054;2023-01-28T00:48:05;10.82;;;3.92;;
65879;SDS011;52661;51.364;6.054;2023-01-28T00:50:31;10.02;;;3.97;;
65879;SDS011;52661;51.364;6.054;2023-01-28T00:52:56;11.85;;;4.85;;
65879;SDS011;52661;51.364;6.054;2023-01-28T00:55:22;11.27;;;4.17;;
65879;SDS011;52661;51.364;6.054;2023-01-28T00:57:47;12.23;;;3.92;;
65879;SDS011;52661;51.364;6.054;2023-01-28T01:00:13;10.68;;;3.85;;
65879;SDS011;52661;51.364;6.054;2023-01-28T01:02:38;11.05;;;4.30;;
65879;SDS011;52661;51.364;6.054;2023-01-28T01:05:04;11.75;;;4.28;;
65879;SDS011;52661;51.364;6.054;2023-01-28T01:07:30;10.60;;;4.13;;
65879;SDS011;52661;51.364;6.054;2023-01-28T01:12:34;12.05;;;4.40;;
65879;SDS011;52661;51.364;6.054;2023-01-28T01:15:00;11.40;;;3.85;;
65879;SDS011;52661;51.364;6.054;2023-01-28T01:17:28;10.73;;;4.03;;
65879;SDS011;52661;51.364;6.054;2023-01-28T01:19:54;9.57;;;3.95;;
65879;SDS011;52661;51.364;6.054;2023-01-28T01:22:20;11.88;;;4.00;;
65879;SDS011;52661;51.364;6.054;2023-01-28T01:24:46;10.87;;;4.10;;
65879;SDS011;52661;51.364;6.054;2023-01-28T01:27:12;10.25;;;4.38;;
65879;SDS011;52661;51.364;6.054;2023-01-28T01:29:37;7.60;;;2.80;;
65879;SDS011;52661;51.364;6.054;2023-01-28T01:32:03;9.20;;;3.35;;
65879;SDS011;52661;51.364;6.054;2023-01-28T01:34:28;7.18;;;3.22;;
65879;SDS011;52661;51.364;6.054;2023-01-28T01:36:54;6.65;;;2.67;;
65879;SDS011;52661;51.364;6.054;2023-01-28T01:39:19;8.68;;;3.33;;
65879;SDS011;52661;51.364;6.054;2023-01-28T01:41:45;8.80;;;3.40;;
65879;SDS011;52661;51.364;6.054;2023-01-28T01:47:13;9.35;;;3.42;;
65879;SDS011;52661;51.364;6.054;2023-01-28T01:49:40;9.65;;;3.42;;
65879;SDS011;52661;51.364;6.054;2023-01-28T01:52:07;8.20;;;3.55;;
65879;SDS011;52661;51.364;6.054;2023-01-28T01:54:43;9.13;;;3.30;;
65879;SDS011;52661;51.364;6.054;2023-01-28T01:57:18;8.55;;;3.45;;
65879;SDS011;52661;51.364;6.054;2023-01-28T01:59:52;9.10;;;3.70;;
65879;SDS011;52661;51.364;6.054;2023-01-28T02:02:19;7.38;;;3.08;;
65879;SDS011;52661;51.364;6.054;2023-01-28T02:04:44;7.35;;;2.63;;
65879;SDS011;52661;51.364;6.054;2023-01-28T02:07:10;6.25;;;2.58;;
65879;SDS011;52661;51.364;6.054;2023-01-28T02:09:39;7.65;;;2.92;;
65879;SDS011;52661;51.364;6.054;2023-01-28T02:12:12;5.97;;;2.80;;
65879;SDS011;52661;51.364;6.054;2023-01-28T02:14:43;7.07;;;2.53;;
65879;SDS011;52661;51.364;6.054;2023-01-28T02:17:12;5.97;;;2.40;;
65879;SDS011;52661;51.364;6.054;2023-01-28T02:19:39;6.45;;;2.22;;
65879;SDS011;52661;51.364;6.054;2023-01-28T02:22:21;6.50;;;3.13;;
65879;SDS011;52661;51.364;6.054;2023-01-28T02:30:21;8.23;;;3.03;;
65879;SDS011;52661;51.364;6.054;2023-01-28T02:32:54;7.22;;;2.53;;
65879;SDS011;52661;51.364;6.054;2023-01-28T02:35:34;7.05;;;2.92;;
65879;SDS011;52661;51.364;6.054;2023-01-28T02:38:03;8.25;;;2.67;;
65879;SDS011;52661;51.364;6.054;2023-01-28T02:40:53;8.98;;;2.80;;
65879;SDS011;52661;51.364;6.054;2023-01-28T02:43:43;6.82;;;2.75;;
65879;SDS011;52661;51.364;6.054;2023-01-28T02:46:18;7.50;;;3.05;;
65879;SDS011;52661;51.364;6.054;2023-01-28T02:49:05;5.22;;;2.67;;
65879;SDS011;52661;51.364;6.054;2023-01-28T02:58:04;10.93;;;3.10;;
65879;SDS011;52661;51.364;6.054;2023-01-28T03:00:33;7.45;;;2.88;;
65879;SDS011;52661;51.364;6.054;2023-01-28T03:03:09;8.50;;;3.45;;
65879;SDS011;52661;51.364;6.054;2023-01-28T03:05:54;5.65;;;2.63;;
65879;SDS011;52661;51.364;6.054;2023-01-28T03:11:29;10.52;;;2.88;;
65879;SDS011;52661;51.364;6.054;2023-01-28T03:14:17;6.80;;;2.70;;
65879;SDS011;52661;51.364;6.054;2023-01-28T03:17:02;8.40;;;3.13;;
65879;SDS011;52661;51.364;6.054;2023-01-28T03:19:50;8.32;;;3.60;;
65879;SDS011;52661;51.364;6.054;2023-01-28T03:22:35;6.82;;;3.15;;
65879;SDS011;52661;51.364;6.054;2023-01-28T03:25:21;6.75;;;3.17;;
65879;SDS011;52661;51.364;6.054;2023-01-28T03:28:11;8.98;;;3.22;;
65879;SDS011;52661;51.364;6.054;2023-01-28T03:31:02;8.98;;;3.72;;
65879;SDS011;52661;51.364;6.054;2023-01-28T03:33:50;8.43;;;3.30;;
65879;SDS011;52661;51.364;6.054;2023-01-28T03:36:35;6.55;;;2.92;;
65879;SDS011;52661;51.364;6.054;2023-01-28T03:39:24;7.40;;;3.10;;
65879;SDS011;52661;51.364;6.054;2023-01-28T03:41:55;9.80;;;3.97;;
65879;SDS011;52661;51.364;6.054;2023-01-28T03:44:26;9.93;;;2.05;;
65879;SDS011;52661;51.364;6.054;2023-01-28T03:47:10;9.23;;;3.05;;
65879;SDS011;52661;51.364;6.054;2023-01-28T03:49:43;6.40;;;2.38;;
65879;SDS011;52661;51.364;6.054;2023-01-28T03:52:10;8.60;;;3.70;;
65879;SDS011;52661;51.364;6.054;2023-01-28T03:54:37;6.88;;;2.83;;
65879;SDS011;52661;51.364;6.054;2023-01-28T03:57:02;9.63;;;3.88;;
65879;SDS011;52661;51.364;6.054;2023-01-28T03:59:30;8.02;;;2.83;;
65879;SDS011;52661;51.364;6.054;2023-01-28T04:01:55;11.60;;;4.35;;
65879;SDS011;52661;51.364;6.054;2023-01-28T04:04:21;13.68;;;3.60;;
65879;SDS011;52661;51.364;6.054;2023-01-28T04:06:52;10.70;;;4.15;;
65879;SDS011;52661;51.364;6.054;2023-01-28T04:09:21;11.30;;;3.78;;
65879;SDS011;52661;51.364;6.054;2023-01-28T04:11:47;9.25;;;3.50;;
65879;SDS011;52661;51.364;6.054;2023-01-28T04:14:15;11.25;;;4.13;;
65879;SDS011;52661;51.364;6.054;2023-01-28T04:16:41;11.20;;;4.03;;
65879;SDS011;52661;51.364;6.054;2023-01-28T04:19:07;10.02;;;3.65;;
65879;SDS011;52661;51.364;6.054;2023-01-28T04:21:33;10.00;;;2.88;;
65879;SDS011;52661;51.364;6.054;2023-01-28T04:23:58;10.60;;;3.95;;
65879;SDS011;52661;51.364;6.054;2023-01-28T04:26:23;11.97;;;4.53;;
65879;SDS011;52661;51.364;6.054;2023-01-28T04:28:49;12.00;;;4.37;;
65879;SDS011;52661;51.364;6.054;2023-01-28T04:31:14;10.70;;;3.83;;
65879;SDS011;52661;51.364;6.054;2023-01-28T04:33:39;9.88;;;3.83;;
65879;SDS011;52661;51.364;6.054;2023-01-28T04:36:05;13.45;;;4.57;;
65879;SDS011;52661;51.364;6.054;2023-01-28T04:38:30;10.35;;;3.40;;
65879;SDS011;52661;51.364;6.054;2023-01-28T04:40:55;10.80;;;3.70;;
65879;SDS011;52661;51.364;6.054;2023-01-28T04:43:21;9.35;;;3.58;;
65879;SDS011;52661;51.364;6.054;2023-01-28T04:45:46;9.18;;;2.92;;
65879;SDS011;52661;51.364;6.054;2023-01-28T04:48:12;13.35;;;4.28;;
65879;SDS011;52661;51.364;6.054;2023-01-28T04:50:38;11.93;;;4.38;;
65879;SDS011;52661;51.364;6.054;2023-01-28T04:53:04;13.20;;;4.85;;
65879;SDS011;52661;51.364;6.054;2023-01-28T04:55:29;10.57;;;3.53;;
65879;SDS011;52661;51.364;6.054;2023-01-28T04:57:54;10.53;;;3.10;;
65879;SDS011;52661;51.364;6.054;2023-01-28T05:00:20;14.33;;;4.87;;
65879;SDS011;52661;51.364;6.054;2023-01-28T05:02:45;11.93;;;4.13;;
65879;SDS011;52661;51.364;6.054;2023-01-28T05:05:10;9.40;;;3.13;;
65879;SDS011;52661;51.364;6.054;2023-01-28T05:07:36;11.37;;;3.93;;
65879;SDS011;52661;51.364;6.054;2023-01-28T05:10:01;11.25;;;3.78;;
65879;SDS011;52661;51.364;6.054;2023-01-28T05:12:27;11.07;;;3.80;;
65879;SDS011;52661;51.364;6.054;2023-01-28T05:14:52;10.43;;;4.20;;
65879;SDS011;52661;51.364;6.054;2023-01-28T05:17:17;14.20;;;4.90;;
65879;SDS011;52661;51.364;6.054;2023-01-28T05:19:43;11.53;;;4.43;;
65879;SDS011;52661;51.364;6.054;2023-01-28T05:22:10;12.32;;;3.63;;
65879;SDS011;52661;51.364;6.054;2023-01-28T05:24:35;12.38;;;4.68;;
65879;SDS011;52661;51.364;6.054;2023-01-28T05:27:01;9.97;;;3.73;;
65879;SDS011;52661;51.364;6.054;2023-01-28T05:29:26;11.97;;;4.13;;
65879;SDS011;52661;51.364;6.054;2023-01-28T05:31:51;11.07;;;4.00;;
65879;SDS011;52661;51.364;6.054;2023-01-28T05:34:16;10.50;;;3.50;;
65879;SDS011;52661;51.364;6.054;2023-01-28T05:36:42;10.60;;;3.70;;
65879;SDS011;52661;51.364;6.054;2023-01-28T05:39:07;11.48;;;3.90;;
65879;SDS011;52661;51.364;6.054;2023-01-28T05:41:33;12.37;;;4.33;;
65879;SDS011;52661;51.364;6.054;2023-01-28T05:43:58;12.35;;;4.32;;
65879;SDS011;52661;51.364;6.054;2023-01-28T05:46:24;11.18;;;3.65;;
65879;SDS011;52661;51.364;6.054;2023-01-28T05:48:49;14.60;;;4.83;;
65879;SDS011;52661;51.364;6.054;2023-01-28T05:51:15;13.40;;;4.82;;
65879;SDS011;52661;51.364;6.054;2023-01-28T05:53:41;13.52;;;4.45;;
65879;SDS011;52661;51.364;6.054;2023-01-28T05:56:06;14.60;;;5.22;;
65879;SDS011;52661;51.364;6.054;2023-01-28T05:58:32;12.90;;;4.30;;
65879;SDS011;52661;51.364;6.054;2023-01-28T06:00:57;13.45;;;4.88;;
65879;SDS011;52661;51.364;6.054;2023-01-28T06:03:23;12.73;;;4.50;;
65879;SDS011;52661;51.364;6.054;2023-01-28T06:05:49;14.27;;;4.80;;
65879;SDS011;52661;51.364;6.054;2023-01-28T06:08:14;16.73;;;5.43;;
65879;SDS011;52661;51.364;6.054;2023-01-28T06:10:40;12.83;;;4.53;;
65879;SDS011;52661;51.364;6.054;2023-01-28T06:13:05;14.33;;;4.50;;
65879;SDS011;52661;51.364;6.054;2023-01-28T06:15:30;15.90;;;5.27;;
65879;SDS011;52661;51.364;6.054;2023-01-28T06:17:56;12.68;;;3.40;;
65879;SDS011;52661;51.364;6.054;2023-01-28T06:20:21;13.33;;;4.10;;
65879;SDS011;52661;51.364;6.054;2023-01-28T06:22:49;14.50;;;4.40;;
65879;SDS011;52661;51.364;6.054;2023-01-28T06:25:17;12.73;;;3.78;;
65879;SDS011;52661;51.364;6.054;2023-01-28T06:27:43;10.55;;;3.78;;
65879;SDS011;52661;51.364;6.054;2023-01-28T06:30:09;13.00;;;3.95;;
65879;SDS011;52661;51.364;6.054;2023-01-28T06:32:34;11.85;;;4.10;;
65879;SDS011;52661;51.364;6.054;2023-01-28T06:35:00;13.18;;;4.07;;
65879;SDS011;52661;51.364;6.054;2023-01-28T06:37:26;14.75;;;4.38;;
65879;SDS011;52661;51.364;6.054;2023-01-28T06:39:51;11.43;;;4.18;;
65879;SDS011;52661;51.364;6.054;2023-01-28T06:42:16;12.00;;;4.33;;
65879;SDS011;52661;51.364;6.054;2023-01-28T06:44:42;10.43;;;4.00;;
65879;SDS011;52661;51.364;6.054;2023-01-28T06:47:07;14.07;;;4.47;;
65879;SDS011;52661;51.364;6.054;2023-01-28T06:49:34;13.95;;;4.72;;
65879;SDS011;52661;51.364;6.054;2023-01-28T06:52:01;10.82;;;4.00;;
65879;SDS011;52661;51.364;6.054;2023-01-28T06:54:26;14.57;;;4.27;;
65879;SDS011;52661;51.364;6.054;2023-01-28T06:56:51;12.13;;;4.60;;
65879;SDS011;52661;51.364;6.054;2023-01-28T06:59:16;13.13;;;4.93;;
65879;SDS011;52661;51.364;6.054;2023-01-28T07:01:42;14.53;;;4.60;;
65879;SDS011;52661;51.364;6.054;2023-01-28T07:04:07;13.32;;;4.30;;
65879;SDS011;52661;51.364;6.054;2023-01-28T07:06:32;12.90;;;4.80;;
65879;SDS011;52661;51.364;6.054;2023-01-28T07:08:58;11.85;;;3.90;;
65879;SDS011;52661;51.364;6.054;2023-01-28T07:11:23;12.03;;;4.53;;
65879;SDS011;52661;51.364;6.054;2023-01-28T07:13:49;14.60;;;5.30;;
65879;SDS011;52661;51.364;6.054;2023-01-28T07:16:14;12.48;;;4.40;;
65879;SDS011;52661;51.364;6.054;2023-01-28T07:18:40;14.73;;;4.72;;
65879;SDS011;52661;51.364;6.054;2023-01-28T07:21:05;15.00;;;5.33;;
65879;SDS011;52661;51.364;6.054;2023-01-28T07:23:30;16.27;;;5.45;;
65879;SDS011;52661;51.364;6.054;2023-01-28T07:25:59;13.50;;;5.23;;
65879;SDS011;52661;51.364;6.054;2023-01-28T07:28:28;14.48;;;5.15;;
65879;SDS011;52661;51.364;6.054;2023-01-28T07:30:53;12.38;;;4.13;;
65879;SDS011;52661;51.364;6.054;2023-01-28T07:33:19;16.97;;;5.20;;
65879;SDS011;52661;51.364;6.054;2023-01-28T07:35:44;12.55;;;5.05;;
65879;SDS011;52661;51.364;6.054;2023-01-28T07:38:10;14.93;;;4.45;;
65879;SDS011;52661;51.364;6.054;2023-01-28T07:40:36;18.95;;;5.65;;
65879;SDS011;52661;51.364;6.054;2023-01-28T07:43:02;14.57;;;4.50;;
65879;SDS011;52661;51.364;6.054;2023-01-28T07:45:27;15.85;;;5.22;;
65879;SDS011;52661;51.364;6.054;2023-01-28T07:47:55;14.73;;;5.20;;
65879;SDS011;52661;51.364;6.054;2023-01-28T07:50:21;13.75;;;4.93;;
65879;SDS011;52661;51.364;6.054;2023-01-28T07:52:47;12.57;;;4.65;;
65879;SDS011;52661;51.364;6.054;2023-01-28T07:55:12;10.30;;;3.63;;
65879;SDS011;52661;51.364;6.054;2023-01-28T07:57:48;10.20;;;4.03;;
65879;SDS011;52661;51.364;6.054;2023-01-28T08:00:18;11.57;;;3.92;;
65879;SDS011;52661;51.364;6.054;2023-01-28T08:02:44;11.02;;;2.97;;
65879;SDS011;52661;51.364;6.054;2023-01-28T08:05:13;12.43;;;4.15;;
65879;SDS011;52661;51.364;6.054;2023-01-28T08:07:42;11.48;;;4.55;;
65879;SDS011;52661;51.364;6.054;2023-01-28T08:10:09;11.60;;;3.63;;
65879;SDS011;52661;51.364;6.054;2023-01-28T08:12:36;13.45;;;4.78;;
65879;SDS011;52661;51.364;6.054;2023-01-28T08:15:01;10.43;;;4.35;;
65879;SDS011;52661;51.364;6.054;2023-01-28T08:17:29;14.35;;;4.65;;
65879;SDS011;52661;51.364;6.054;2023-01-28T08:19:54;11.85;;;4.40;;
65879;SDS011;52661;51.364;6.054;2023-01-28T08:22:23;12.68;;;4.07;;
65879;SDS011;52661;51.364;6.054;2023-01-28T08:24:49;10.07;;;3.08;;
65879;SDS011;52661;51.364;6.054;2023-01-28T08:27:14;9.10;;;4.03;;
65879;SDS011;52661;51.364;6.054;2023-01-28T08:29:39;11.83;;;4.10;;
65879;SDS011;52661;51.364;6.054;2023-01-28T08:32:05;12.40;;;4.37;;
65879;SDS011;52661;51.364;6.054;2023-01-28T08:34:30;10.50;;;4.03;;
65879;SDS011;52661;51.364;6.054;2023-01-28T08:36:55;11.00;;;4.23;;
65879;SDS011;52661;51.364;6.054;2023-01-28T08:39:21;12.23;;;4.13;;
65879;SDS011;52661;51.364;6.054;2023-01-28T08:41:46;9.90;;;3.50;;
65879;SDS011;52661;51.364;6.054;2023-01-28T08:44:11;12.17;;;4.17;;
65879;SDS011;52661;51.364;6.054;2023-01-28T08:46:36;14.23;;;3.50;;
65879;SDS011;52661;51.364;6.054;2023-01-28T08:49:02;10.33;;;4.53;;
65879;SDS011;52661;51.364;6.054;2023-01-28T08:51:27;10.23;;;3.87;;
65879;SDS011;52661;51.364;6.054;2023-01-28T08:53:52;12.00;;;3.97;;
65879;SDS011;52661;51.364;6.054;2023-01-28T08:56:18;10.57;;;4.43;;
65879;SDS011;52661;51.364;6.054;2023-01-28T08:58:43;8.48;;;3.63;;
65879;SDS011;52661;51.364;6.054;2023-01-28T09:01:09;8.32;;;3.33;;
65879;SDS011;52661;51.364;6.054;2023-01-28T09:03:34;8.95;;;3.53;;
65879;SDS011;52661;51.364;6.054;2023-01-28T09:06:03;12.13;;;3.92;;
65879;SDS011;52661;51.364;6.054;2023-01-28T09:08:29;9.52;;;3.22;;
65879;SDS011;52661;51.364;6.054;2023-01-28T09:10:55;11.55;;;4.50;;
65879;SDS011;52661;51.364;6.054;2023-01-28T09:13:21;10.68;;;4.05;;
65879;SDS011;52661;51.364;6.054;2023-01-28T09:15:47;9.85;;;3.60;;
65879;SDS011;52661;51.364;6.054;2023-01-28T09:18:12;11.15;;;4.47;;
65879;SDS011;52661;51.364;6.054;2023-01-28T09:20:38;9.07;;;3.08;;
65879;SDS011;52661;51.364;6.054;2023-01-28T09:23:03;14.15;;;4.60;;
65879;SDS011;52661;51.364;6.054;2023-01-28T09:25:29;11.10;;;4.10;;
65879;SDS011;52661;51.364;6.054;2023-01-28T09:27:54;13.10;;;4.50;;
65879;SDS011;52661;51.364;6.054;2023-01-28T09:30:21;12.00;;;4.45;;
65879;SDS011;52661;51.364;6.054;2023-01-28T09:32:49;11.23;;;4.72;;
65879;SDS011;52661;51.364;6.054;2023-01-28T09:35:16;10.85;;;3.78;;
65879;SDS011;52661;51.364;6.054;2023-01-28T09:37:42;15.30;;;5.18;;
65879;SDS011;52661;51.364;6.054;2023-01-28T09:40:09;14.25;;;5.60;;
65879;SDS011;52661;51.364;6.054;2023-01-28T09:43:02;14.10;;;5.40;;
65879;SDS011;52661;51.364;6.054;2023-01-28T09:45:43;13.18;;;4.68;;
65879;SDS011;52661;51.364;6.054;2023-01-28T09:48:21;13.32;;;4.82;;
65879;SDS011;52661;51.364;6.054;2023-01-28T09:50:54;13.80;;;5.60;;
65879;SDS011;52661;51.364;6.054;2023-01-28T09:53:33;12.68;;;3.53;;
65879;SDS011;52661;51.364;6.054;2023-01-28T09:56:04;11.93;;;4.25;;
65879;SDS011;52661;51.364;6.054;2023-01-28T09:58:35;12.35;;;4.65;;
65879;SDS011;52661;51.364;6.054;2023-01-28T10:06:33;7.30;;;3.00;;
65879;SDS011;52661;51.364;6.054;2023-01-28T10:19:44;10.00;;;3.90;;
65879;SDS011;52661;51.364;6.054;2023-01-28T10:22:18;11.77;;;3.45;;
65879;SDS011;52661;51.364;6.054;2023-01-28T10:24:57;10.40;;;4.40;;
65879;SDS011;52661;51.364;6.054;2023-01-28T10:27:31;7.97;;;2.55;;
65879;SDS011;52661;51.364;6.054;2023-01-28T10:29:58;11.10;;;3.42;;
65879;SDS011;52661;51.364;6.054;2023-01-28T10:32:34;11.45;;;3.80;;
65879;SDS011;52661;51.364;6.054;2023-01-28T10:35:07;5.20;;;1.58;;
65879;SDS011;52661;51.364;6.054;2023-01-28T10:37:33;10.25;;;4.38;;
65879;SDS011;52661;51.364;6.054;2023-01-28T10:42:29;10.10;;;2.92;;
65879;SDS011;52661;51.364;6.054;2023-01-28T10:45:06;4.45;;;1.80;;
65879;SDS011;52661;51.364;6.054;2023-01-28T10:48:06;12.55;;;3.53;;
65879;SDS011;52661;51.364;6.054;2023-01-28T10:50:50;8.73;;;2.97;;
65879;SDS011;52661;51.364;6.054;2023-01-28T10:53:17;10.40;;;4.13;;
65879;SDS011;52661;51.364;6.054;2023-01-28T10:58:23;9.30;;;3.30;;
65879;SDS011;52661;51.364;6.054;2023-01-28T11:00:51;8.70;;;2.58;;
65879;SDS011;52661;51.364;6.054;2023-01-28T11:03:51;7.07;;;2.67;;
65879;SDS011;52661;51.364;6.054;2023-01-28T11:06:22;9.45;;;3.70;;
65879;SDS011;52661;51.364;6.054;2023-01-28T11:08:50;11.13;;;3.92;;
65879;SDS011;52661;51.364;6.054;2023-01-28T11:11:15;10.07;;;3.40;;
65879;SDS011;52661;51.364;6.054;2023-01-28T11:13:49;12.00;;;4.07;;
65879;SDS011;52661;51.364;6.054;2023-01-28T11:16:17;8.73;;;3.45;;
65879;SDS011;52661;51.364;6.054;2023-01-28T11:18:53;7.53;;;2.90;;
65879;SDS011;52661;51.364;6.054;2023-01-28T11:21:25;8.63;;;3.75;;
65879;SDS011;52661;51.364;6.054;2023-01-28T11:23:53;13.55;;;4.05;;
65879;SDS011;52661;51.364;6.054;2023-01-28T11:26:23;15.07;;;4.63;;
65879;SDS011;52661;51.364;6.054;2023-01-28T11:28:51;10.30;;;3.78;;
65879;SDS011;52661;51.364;6.054;2023-01-28T11:31:17;10.82;;;4.20;;
65879;SDS011;52661;51.364;6.054;2023-01-28T11:34:00;13.65;;;5.05;;
65879;SDS011;52661;51.364;6.054;2023-01-28T11:36:29;12.20;;;4.20;;
65879;SDS011;52661;51.364;6.054;2023-01-28T11:41:28;11.70;;;5.20;;
65879;SDS011;52661;51.364;6.054;2023-01-28T11:43:53;12.60;;;4.80;;
65879;SDS011;52661;51.364;6.054;2023-01-28T11:51:36;11.13;;;4.25;;
65879;SDS011;52661;51.364;6.054;2023-01-28T12:07:56;13.20;;;4.88;;
65879;SDS011;52661;51.364;6.054;2023-01-28T12:16:01;13.98;;;5.30;;
65879;SDS011;52661;51.364;6.054;2023-01-28T12:21:21;11.63;;;4.43;;
65879;SDS011;52661;51.364;6.054;2023-01-28T12:24:11;10.88;;;4.03;;
65879;SDS011;52661;51.364;6.054;2023-01-28T12:40:35;12.25;;;4.70;;
65879;SDS011;52661;51.364;6.054;2023-01-28T12:43:04;14.05;;;4.18;;
65879;SDS011;52661;51.364;6.054;2023-01-28T12:45:37;11.10;;;4.35;;
65879;SDS011;52661;51.364;6.054;2023-01-28T12:50:40;12.68;;;5.60;;
65879;SDS011;52661;51.364;6.054;2023-01-28T12:53:18;13.48;;;4.38;;
65879;SDS011;52661;51.364;6.054;2023-01-28T12:56:15;14.48;;;5.47;;
65879;SDS011;52661;51.364;6.054;2023-01-28T12:58:51;14.70;;;5.05;;
65879;SDS011;52661;51.364;6.054;2023-01-28T13:01:29;15.30;;;5.55;;
65879;SDS011;52661;51.364;6.054;2023-01-28T13:04:09;11.77;;;4.97;;
65879;SDS011;52661;51.364;6.054;2023-01-28T13:06:43;16.00;;;5.38;;
65879;SDS011;52661;51.364;6.054;2023-01-28T13:09:21;13.95;;;5.50;;
65879;SDS011;52661;51.364;6.054;2023-01-28T13:11:49;19.70;;;5.07;;
65879;SDS011;52661;51.364;6.054;2023-01-28T13:14:17;13.55;;;5.13;;
65879;SDS011;52661;51.364;6.054;2023-01-28T13:16:52;12.40;;;4.82;;
65879;SDS011;52661;51.364;6.054;2023-01-28T13:21:43;15.60;;;5.27;;
65879;SDS011;52661;51.364;6.054;2023-01-28T13:26:45;14.00;;;5.38;;
65879;SDS011;52661;51.364;6.054;2023-01-28T13:31:50;13.60;;;5.07;;
65879;SDS011;52661;51.364;6.054;2023-01-28T13:37:05;14.73;;;4.63;;
65879;SDS011;52661;51.364;6.054;2023-01-28T13:39:45;13.20;;;5.07;;
65879;SDS011;52661;51.364;6.054;2023-01-28T13:42:21;15.73;;;6.07;;
65879;SDS011;52661;51.364;6.054;2023-01-28T13:44:49;14.45;;;5.68;;
65879;SDS011;52661;51.364;6.054;2023-01-28T13:47:22;15.27;;;5.78;;
65879;SDS011;52661;51.364;6.054;2023-01-28T13:49:55;15.32;;;5.60;;
65879;SDS011;52661;51.364;6.054;2023-01-28T13:52:28;13.48;;;4.72;;
65879;SDS011;52661;51.364;6.054;2023-01-28T13:58:23;14.80;;;5.45;;
65879;SDS011;52661;51.364;6.054;2023-01-28T14:08:55;13.37;;;5.07;;
65879;SDS011;52661;51.364;6.054;2023-01-28T14:16:54;16.27;;;5.53;;
65879;SDS011;52661;51.364;6.054;2023-01-28T14:19:28;12.10;;;4.55;;
65879;SDS011;52661;51.364;6.054;2023-01-28T14:21:57;15.15;;;5.90;;
65879;SDS011;52661;51.364;6.054;2023-01-28T14:24:23;13.60;;;4.63;;
65879;SDS011;52661;51.364;6.054;2023-01-28T14:26:54;14.40;;;5.10;;
65879;SDS011;52661;51.364;6.054;2023-01-28T14:32:14;14.57;;;5.85;;
65879;SDS011;52661;51.364;6.054;2023-01-28T14:34:41;14.07;;;5.28;;
65879;SDS011;52661;51.364;6.054;2023-01-28T14:37:12;13.40;;;4.95;;
65879;SDS011;52661;51.364;6.054;2023-01-28T14:47:48;16.00;;;5.75;;
65879;SDS011;52661;51.364;6.054;2023-01-28T14:50:43;17.35;;;6.25;;
65879;SDS011;52661;51.364;6.054;2023-01-28T14:53:25;15.77;;;5.35;;
65879;SDS011;52661;51.364;6.054;2023-01-28T14:59:03;14.68;;;5.75;;
65879;SDS011;52661;51.364;6.054;2023-01-28T15:01:41;13.73;;;5.57;;
65879;SDS011;52661;51.364;6.054;2023-01-28T15:04:28;14.63;;;6.38;;
65879;SDS011;52661;51.364;6.054;2023-01-28T15:06:56;14.93;;;5.38;;
65879;SDS011;52661;51.364;6.054;2023-01-28T15:09:25;14.40;;;5.53;;
65879;SDS011;52661;51.364;6.054;2023-01-28T15:11:52;16.70;;;5.33;;
65879;SDS011;52661;51.364;6.054;2023-01-28T15:14:25;17.52;;;6.70;;
65879;SDS011;52661;51.364;6.054;2023-01-28T15:16:53;20.02;;;7.22;;
65879;SDS011;52661;51.364;6.054;2023-01-28T15:19:22;13.68;;;5.45;;
65879;SDS011;52661;51.364;6.054;2023-01-28T15:21:53;22.92;;;7.65;;
65879;SDS011;52661;51.364;6.054;2023-01-28T15:24:20;19.48;;;6.40;;
65879;SDS011;52661;51.364;6.054;2023-01-28T15:26:46;19.48;;;6.60;;
65879;SDS011;52661;51.364;6.054;2023-01-28T15:29:50;36.47;;;10.48;;
65879;SDS011;52661;51.364;6.054;2023-01-28T15:32:03;20.17;;;7.85;;
65879;SDS011;52661;51.364;6.054;2023-01-28T15:34:29;17.20;;;6.97;;
65879;SDS011;52661;51.364;6.054;2023-01-28T15:36:56;18.25;;;6.70;;
65879;SDS011;52661;51.364;6.054;2023-01-28T15:39:23;22.50;;;8.27;;
65879;SDS011;52661;51.364;6.054;2023-01-28T15:44:32;20.67;;;7.00;;
65879;SDS011;52661;51.364;6.054;2023-01-28T15:47:02;28.17;;;8.70;;
65879;SDS011;52661;51.364;6.054;2023-01-28T15:49:40;25.83;;;10.30;;
65879;SDS011;52661;51.364;6.054;2023-01-28T15:52:09;25.17;;;8.10;;
65879;SDS011;52661;51.364;6.054;2023-01-28T15:54:39;18.20;;;6.47;;
65879;SDS011;52661;51.364;6.054;2023-01-28T15:57:16;17.63;;;6.55;;
65879;SDS011;52661;51.364;6.054;2023-01-28T15:59:46;18.08;;;6.95;;
65879;SDS011;52661;51.364;6.054;2023-01-28T16:07:31;98.20;;;28.08;;
65879;SDS011;52661;51.364;6.054;2023-01-28T16:10:00;56.92;;;18.52;;
65879;SDS011;52661;51.364;6.054;2023-01-28T16:12:27;53.63;;;18.90;;
65879;SDS011;52661;51.364;6.054;2023-01-28T16:14:54;45.03;;;14.77;;
65879;SDS011;52661;51.364;6.054;2023-01-28T16:17:22;23.95;;;8.93;;
65879;SDS011;52661;51.364;6.054;2023-01-28T16:20:01;18.23;;;6.97;;
65879;SDS011;52661;51.364;6.054;2023-01-28T16:27:24;16.58;;;5.03;;
65879;SDS011;52661;51.364;6.054;2023-01-28T16:29:51;15.35;;;5.95;;
65879;SDS011;52661;51.364;6.054;2023-01-28T16:34:59;15.93;;;5.65;;
65879;SDS011;52661;51.364;6.054;2023-01-28T16:37:25;14.43;;;5.40;;
65879;SDS011;52661;51.364;6.054;2023-01-28T16:39:51;15.13;;;6.15;;
65879;SDS011;52661;51.364;6.054;2023-01-28T16:42:16;19.83;;;7.43;;
65879;SDS011;52661;51.364;6.054;2023-01-28T16:44:42;22.83;;;9.43;;
65879;SDS011;52661;51.364;6.054;2023-01-28T16:47:08;21.33;;;9.75;;
65879;SDS011;52661;51.364;6.054;2023-01-28T16:49:33;23.30;;;10.23;;
65879;SDS011;52661;51.364;6.054;2023-01-28T16:51:59;21.88;;;10.23;;
65879;SDS011;52661;51.364;6.054;2023-01-28T16:54:26;19.02;;;8.07;;
65879;SDS011;52661;51.364;6.054;2023-01-28T16:56:52;21.13;;;7.70;;
65879;SDS011;52661;51.364;6.054;2023-01-28T16:59:19;20.10;;;8.75;;
65879;SDS011;52661;51.364;6.054;2023-01-28T17:01:44;25.90;;;9.73;;
65879;SDS011;52661;51.364;6.054;2023-01-28T17:04:10;28.98;;;11.27;;
65879;SDS011;52661;51.364;6.054;2023-01-28T17:06:36;30.05;;;10.70;;
65879;SDS011;52661;51.364;6.054;2023-01-28T17:09:05;31.52;;;12.60;;
65879;SDS011;52661;51.364;6.054;2023-01-28T17:13:56;26.88;;;11.90;;
65879;SDS011;52661;51.364;6.054;2023-01-28T17:16:21;31.70;;;12.45;;
65879;SDS011;52661;51.364;6.054;2023-01-28T17:18:50;30.80;;;13.17;;